sensor_id;sensor_type;location;lat;lon;timestamp;P1;durP1;ratioP1;P2;durP2;ratioP2
7128;SDS011;3606;52.930;8.644;2024-01-30T00:02:21;16.97;;;11.33;;
7128;SDS011;3606;52.930;8.644;2024-01-30T00:04:46;20.03;;;12.47;;
7128;SDS011;3606;52.930;8.644;2024-01-30T00:07:12;19.57;;;12.13;;
7128;SDS011;3606;52.930;8.644;2024-01-30T00:09:38;22.23;;;13.70;;
7128;SDS011;3606;52.930;8.644;2024-01-30T00:12:04;21.50;;;14.90;;
7128;SDS011;3606;52.930;8.644;2024-01-30T00:14:31;22.30;;;15.47;;
7128;SDS011;3606;52.930;8.644;2024-01-30T00:16:57;25.43;;;15.20;;
7128;SDS011;3606;52.930;8.644;2024-01-30T00:19:22;22.33;;;14.50;;
7128;SDS011;3606;52.930;8.644;2024-01-30T00:21:48;27.83;;;14.23;;
7128;SDS011;3606;52.930;8.644;2024-01-30T00:24:13;26.67;;;15.40;;
7128;SDS011;3606;52.930;8.644;2024-01-30T00:26:39;24.00;;;15.07;;
7128;SDS011;3606;52.930;8.644;2024-01-30T00:29:05;23.80;;;14.83;;
7128;SDS011;3606;52.930;8.644;2024-01-30T00:31:30;25.47;;;13.67;;
7128;SDS011;3606;52.930;8.644;2024-01-30T00:33:56;20.40;;;13.47;;
7128;SDS011;3606;52.930;8.644;2024-01-30T00:36:22;22.20;;;13.93;;
7128;SDS011;3606;52.930;8.644;2024-01-30T00:38:47;24.87;;;14.73;;
7128;SDS011;3606;52.930;8.644;2024-01-30T00:41:13;27.57;;;13.93;;
7128;SDS011;3606;52.930;8.644;2024-01-30T00:43:39;22.43;;;15.23;;
7128;SDS011;3606;52.930;8.644;2024-01-30T00:46:04;23.60;;;14.00;;
7128;SDS011;3606;52.930;8.644;2024-01-30T00:48:30;21.20;;;13.97;;
7128;SDS011;3606;52.930;8.644;2024-01-30T00:50:55;25.70;;;13.97;;
7128;SDS011;3606;52.930;8.644;2024-01-30T00:53:21;20.07;;;12.97;;
7128;SDS011;3606;52.930;8.644;2024-01-30T00:55:47;20.00;;;13.87;;
7128;SDS011;3606;52.930;8.644;2024-01-30T00:58:12;17.87;;;13.23;;
7128;SDS011;3606;52.930;8.644;2024-01-30T01:00:38;20.30;;;13.53;;
7128;SDS011;3606;52.930;8.644;2024-01-30T01:03:04;22.20;;;13.47;;
7128;SDS011;3606;52.930;8.644;2024-01-30T01:05:29;24.27;;;14.23;;
7128;SDS011;3606;52.930;8.644;2024-01-30T01:07:55;22.37;;;13.67;;
7128;SDS011;3606;52.930;8.644;2024-01-30T01:10:21;23.60;;;13.33;;
7128;SDS011;3606;52.930;8.644;2024-01-30T01:12:47;18.17;;;12.23;;
7128;SDS011;3606;52.930;8.644;2024-01-30T01:15:13;21.17;;;11.90;;
7128;SDS011;3606;52.930;8.644;2024-01-30T01:17:39;16.37;;;11.53;;
7128;SDS011;3606;52.930;8.644;2024-01-30T01:20:06;17.33;;;11.13;;
7128;SDS011;3606;52.930;8.644;2024-01-30T01:22:33;16.93;;;11.47;;
7128;SDS011;3606;52.930;8.644;2024-01-30T01:24:59;17.03;;;11.63;;
7128;SDS011;3606;52.930;8.644;2024-01-30T01:27:25;18.33;;;11.43;;
7128;SDS011;3606;52.930;8.644;2024-01-30T01:29:51;22.50;;;12.47;;
7128;SDS011;3606;52.930;8.644;2024-01-30T01:32:17;18.97;;;11.27;;
7128;SDS011;3606;52.930;8.644;2024-01-30T01:34:43;15.63;;;11.20;;
7128;SDS011;3606;52.930;8.644;2024-01-30T01:37:09;16.93;;;11.40;;
7128;SDS011;3606;52.930;8.644;2024-01-30T01:39:35;15.23;;;11.33;;
7128;SDS011;3606;52.930;8.644;2024-01-30T01:42:00;16.30;;;10.27;;
7128;SDS011;3606;52.930;8.644;2024-01-30T01:44:26;17.80;;;10.63;;
7128;SDS011;3606;52.930;8.644;2024-01-30T01:46:52;19.33;;;10.87;;
7128;SDS011;3606;52.930;8.644;2024-01-30T01:49:19;16.67;;;10.53;;
7128;SDS011;3606;52.930;8.644;2024-01-30T01:51:53;18.03;;;11.63;;
7128;SDS011;3606;52.930;8.644;2024-01-30T01:54:21;13.80;;;10.20;;
7128;SDS011;3606;52.930;8.644;2024-01-30T01:56:49;14.10;;;9.87;;
7128;SDS011;3606;52.930;8.644;2024-01-30T01:59:16;13.23;;;10.50;;
7128;SDS011;3606;52.930;8.644;2024-01-30T02:01:42;16.40;;;9.90;;
7128;SDS011;3606;52.930;8.644;2024-01-30T02:04:08;14.97;;;10.23;;
7128;SDS011;3606;52.930;8.644;2024-01-30T02:06:34;17.67;;;10.07;;
7128;SDS011;3606;52.930;8.644;2024-01-30T02:09:00;14.40;;;9.33;;
7128;SDS011;3606;52.930;8.644;2024-01-30T02:11:26;16.63;;;10.53;;
7128;SDS011;3606;52.930;8.644;2024-01-30T02:13:53;15.43;;;10.17;;
7128;SDS011;3606;52.930;8.644;2024-01-30T02:16:18;14.03;;;9.87;;
7128;SDS011;3606;52.930;8.644;2024-01-30T02:18:44;11.80;;;9.13;;
7128;SDS011;3606;52.930;8.644;2024-01-30T02:21:12;13.50;;;10.50;;
7128;SDS011;3606;52.930;8.644;2024-01-30T02:23:41;16.43;;;10.37;;
7128;SDS011;3606;52.930;8.644;2024-01-30T02:26:09;15.10;;;10.00;;
7128;SDS011;3606;52.930;8.644;2024-01-30T02:28:34;11.67;;;9.10;;
7128;SDS011;3606;52.930;8.644;2024-01-30T02:31:00;15.40;;;9.70;;
7128;SDS011;3606;52.930;8.644;2024-01-30T02:33:26;15.83;;;9.77;;
7128;SDS011;3606;52.930;8.644;2024-01-30T02:35:51;16.40;;;10.53;;
7128;SDS011;3606;52.930;8.644;2024-01-30T02:38:17;13.40;;;9.30;;
7128;SDS011;3606;52.930;8.644;2024-01-30T02:40:42;14.37;;;9.77;;
7128;SDS011;3606;52.930;8.644;2024-01-30T02:43:08;13.30;;;9.73;;
7128;SDS011;3606;52.930;8.644;2024-01-30T02:45:34;14.03;;;10.00;;
7128;SDS011;3606;52.930;8.644;2024-01-30T02:47:59;16.07;;;9.87;;
7128;SDS011;3606;52.930;8.644;2024-01-30T02:50:25;14.57;;;10.23;;
7128;SDS011;3606;52.930;8.644;2024-01-30T02:52:50;14.53;;;10.50;;
7128;SDS011;3606;52.930;8.644;2024-01-30T02:55:16;18.30;;;10.83;;
7128;SDS011;3606;52.930;8.644;2024-01-30T02:57:44;13.77;;;10.60;;
7128;SDS011;3606;52.930;8.644;2024-01-30T03:00:10;16.27;;;10.77;;
7128;SDS011;3606;52.930;8.644;2024-01-30T03:02:36;17.20;;;11.10;;
7128;SDS011;3606;52.930;8.644;2024-01-30T03:05:02;16.93;;;10.77;;
7128;SDS011;3606;52.930;8.644;2024-01-30T03:07:31;14.03;;;10.23;;
7128;SDS011;3606;52.930;8.644;2024-01-30T03:09:57;18.30;;;10.63;;
7128;SDS011;3606;52.930;8.644;2024-01-30T03:12:22;14.87;;;11.00;;
7128;SDS011;3606;52.930;8.644;2024-01-30T03:14:48;15.33;;;10.63;;
7128;SDS011;3606;52.930;8.644;2024-01-30T03:17:14;13.70;;;9.97;;
7128;SDS011;3606;52.930;8.644;2024-01-30T03:19:40;14.77;;;10.67;;
7128;SDS011;3606;52.930;8.644;2024-01-30T03:22:05;15.40;;;10.97;;
7128;SDS011;3606;52.930;8.644;2024-01-30T03:24:31;19.43;;;11.17;;
7128;SDS011;3606;52.930;8.644;2024-01-30T03:26:57;16.20;;;11.03;;
7128;SDS011;3606;52.930;8.644;2024-01-30T03:29:22;13.20;;;10.60;;
7128;SDS011;3606;52.930;8.644;2024-01-30T03:31:48;15.17;;;10.20;;
7128;SDS011;3606;52.930;8.644;2024-01-30T03:34:13;15.17;;;10.37;;
7128;SDS011;3606;52.930;8.644;2024-01-30T03:36:39;15.17;;;10.93;;
7128;SDS011;3606;52.930;8.644;2024-01-30T03:39:05;14.10;;;10.50;;
7128;SDS011;3606;52.930;8.644;2024-01-30T03:41:31;18.50;;;11.17;;
7128;SDS011;3606;52.930;8.644;2024-01-30T03:43:57;18.73;;;11.77;;
7128;SDS011;3606;52.930;8.644;2024-01-30T03:46:22;20.13;;;11.00;;
7128;SDS011;3606;52.930;8.644;2024-01-30T03:48:48;15.87;;;10.80;;
7128;SDS011;3606;52.930;8.644;2024-01-30T03:51:14;15.20;;;10.77;;
7128;SDS011;3606;52.930;8.644;2024-01-30T03:53:43;16.30;;;10.63;;
7128;SDS011;3606;52.930;8.644;2024-01-30T03:56:11;13.73;;;10.37;;
7128;SDS011;3606;52.930;8.644;2024-01-30T03:58:38;16.70;;;11.10;;
7128;SDS011;3606;52.930;8.644;2024-01-30T04:01:03;16.50;;;11.03;;
7128;SDS011;3606;52.930;8.644;2024-01-30T04:03:29;17.87;;;10.77;;
7128;SDS011;3606;52.930;8.644;2024-01-30T04:05:54;16.73;;;11.13;;
7128;SDS011;3606;52.930;8.644;2024-01-30T04:08:20;14.00;;;9.87;;
7128;SDS011;3606;52.930;8.644;2024-01-30T04:10:46;14.97;;;10.03;;
7128;SDS011;3606;52.930;8.644;2024-01-30T04:13:12;14.37;;;10.53;;
7128;SDS011;3606;52.930;8.644;2024-01-30T04:15:38;15.10;;;10.90;;
7128;SDS011;3606;52.930;8.644;2024-01-30T04:18:04;15.57;;;10.07;;
7128;SDS011;3606;52.930;8.644;2024-01-30T04:20:30;13.63;;;10.37;;
7128;SDS011;3606;52.930;8.644;2024-01-30T04:22:55;16.20;;;10.13;;
7128;SDS011;3606;52.930;8.644;2024-01-30T04:25:21;14.93;;;10.90;;
7128;SDS011;3606;52.930;8.644;2024-01-30T04:27:47;13.00;;;9.57;;
7128;SDS011;3606;52.930;8.644;2024-01-30T04:30:13;17.17;;;10.17;;
7128;SDS011;3606;52.930;8.644;2024-01-30T04:32:39;15.23;;;10.57;;
7128;SDS011;3606;52.930;8.644;2024-01-30T04:35:04;15.23;;;10.03;;
7128;SDS011;3606;52.930;8.644;2024-01-30T04:37:30;16.07;;;10.67;;
7128;SDS011;3606;52.930;8.644;2024-01-30T04:39:56;16.63;;;10.83;;
7128;SDS011;3606;52.930;8.644;2024-01-30T04:42:22;16.73;;;10.60;;
7128;SDS011;3606;52.930;8.644;2024-01-30T04:44:48;15.53;;;10.20;;
7128;SDS011;3606;52.930;8.644;2024-01-30T04:47:13;15.50;;;10.27;;
7128;SDS011;3606;52.930;8.644;2024-01-30T04:49:39;13.30;;;10.40;;
7128;SDS011;3606;52.930;8.644;2024-01-30T04:52:05;15.73;;;10.47;;
7128;SDS011;3606;52.930;8.644;2024-01-30T04:54:31;13.63;;;9.10;;
7128;SDS011;3606;52.930;8.644;2024-01-30T04:56:57;13.33;;;9.40;;
7128;SDS011;3606;52.930;8.644;2024-01-30T04:59:23;14.40;;;10.53;;
7128;SDS011;3606;52.930;8.644;2024-01-30T05:01:49;15.20;;;10.70;;
7128;SDS011;3606;52.930;8.644;2024-01-30T05:04:14;19.07;;;11.10;;
7128;SDS011;3606;52.930;8.644;2024-01-30T05:06:40;17.93;;;10.67;;
7128;SDS011;3606;52.930;8.644;2024-01-30T05:09:06;15.67;;;9.63;;
7128;SDS011;3606;52.930;8.644;2024-01-30T05:11:31;14.60;;;10.07;;
7128;SDS011;3606;52.930;8.644;2024-01-30T05:14:02;18.03;;;10.73;;
7128;SDS011;3606;52.930;8.644;2024-01-30T05:16:28;17.93;;;11.70;;
7128;SDS011;3606;52.930;8.644;2024-01-30T05:18:54;17.33;;;10.67;;
7128;SDS011;3606;52.930;8.644;2024-01-30T05:21:19;18.13;;;11.33;;
7128;SDS011;3606;52.930;8.644;2024-01-30T05:23:45;19.47;;;11.23;;
7128;SDS011;3606;52.930;8.644;2024-01-30T05:26:10;14.33;;;10.80;;
7128;SDS011;3606;52.930;8.644;2024-01-30T05:28:36;15.10;;;11.27;;
7128;SDS011;3606;52.930;8.644;2024-01-30T05:31:02;15.47;;;10.70;;
7128;SDS011;3606;52.930;8.644;2024-01-30T05:33:28;17.63;;;10.73;;
7128;SDS011;3606;52.930;8.644;2024-01-30T05:35:54;18.43;;;10.80;;
7128;SDS011;3606;52.930;8.644;2024-01-30T05:38:19;15.43;;;11.07;;
7128;SDS011;3606;52.930;8.644;2024-01-30T05:40:45;15.73;;;10.77;;
7128;SDS011;3606;52.930;8.644;2024-01-30T05:43:11;15.73;;;10.87;;
7128;SDS011;3606;52.930;8.644;2024-01-30T05:45:37;16.47;;;10.80;;
7128;SDS011;3606;52.930;8.644;2024-01-30T05:48:03;17.00;;;10.43;;
7128;SDS011;3606;52.930;8.644;2024-01-30T05:50:29;15.20;;;10.60;;
7128;SDS011;3606;52.930;8.644;2024-01-30T05:52:55;16.23;;;11.27;;
7128;SDS011;3606;52.930;8.644;2024-01-30T05:55:20;15.97;;;11.23;;
7128;SDS011;3606;52.930;8.644;2024-01-30T05:57:46;15.10;;;11.40;;
7128;SDS011;3606;52.930;8.644;2024-01-30T06:00:11;16.67;;;10.60;;
7128;SDS011;3606;52.930;8.644;2024-01-30T06:02:37;13.07;;;10.13;;
7128;SDS011;3606;52.930;8.644;2024-01-30T06:05:03;20.50;;;11.63;;
7128;SDS011;3606;52.930;8.644;2024-01-30T06:07:29;17.43;;;11.00;;
7128;SDS011;3606;52.930;8.644;2024-01-30T06:09:54;17.87;;;11.63;;
7128;SDS011;3606;52.930;8.644;2024-01-30T06:12:20;15.37;;;10.43;;
7128;SDS011;3606;52.930;8.644;2024-01-30T06:14:46;14.93;;;10.90;;
7128;SDS011;3606;52.930;8.644;2024-01-30T06:17:11;16.57;;;11.07;;
7128;SDS011;3606;52.930;8.644;2024-01-30T06:19:37;18.60;;;11.70;;
7128;SDS011;3606;52.930;8.644;2024-01-30T06:22:04;16.60;;;12.40;;
7128;SDS011;3606;52.930;8.644;2024-01-30T06:24:30;18.47;;;11.13;;
7128;SDS011;3606;52.930;8.644;2024-01-30T06:26:55;17.20;;;11.37;;
7128;SDS011;3606;52.930;8.644;2024-01-30T06:29:21;15.57;;;10.87;;
7128;SDS011;3606;52.930;8.644;2024-01-30T06:31:47;13.47;;;10.83;;
7128;SDS011;3606;52.930;8.644;2024-01-30T06:34:12;14.60;;;10.33;;
7128;SDS011;3606;52.930;8.644;2024-01-30T06:36:38;16.67;;;11.63;;
7128;SDS011;3606;52.930;8.644;2024-01-30T06:39:04;19.73;;;11.23;;
7128;SDS011;3606;52.930;8.644;2024-01-30T06:41:30;17.27;;;11.13;;
7128;SDS011;3606;52.930;8.644;2024-01-30T06:43:56;13.60;;;10.40;;
7128;SDS011;3606;52.930;8.644;2024-01-30T06:46:21;16.30;;;10.17;;
7128;SDS011;3606;52.930;8.644;2024-01-30T06:48:47;15.83;;;10.53;;
7128;SDS011;3606;52.930;8.644;2024-01-30T06:51:13;17.27;;;10.73;;
7128;SDS011;3606;52.930;8.644;2024-01-30T06:53:39;17.77;;;11.43;;
7128;SDS011;3606;52.930;8.644;2024-01-30T06:56:05;13.83;;;10.87;;
7128;SDS011;3606;52.930;8.644;2024-01-30T06:58:31;14.00;;;10.50;;
7128;SDS011;3606;52.930;8.644;2024-01-30T07:00:57;16.77;;;11.50;;
7128;SDS011;3606;52.930;8.644;2024-01-30T07:03:23;18.47;;;12.23;;
7128;SDS011;3606;52.930;8.644;2024-01-30T07:05:49;16.17;;;10.97;;
7128;SDS011;3606;52.930;8.644;2024-01-30T07:08:15;15.63;;;10.63;;
7128;SDS011;3606;52.930;8.644;2024-01-30T07:10:44;15.67;;;11.27;;
7128;SDS011;3606;52.930;8.644;2024-01-30T07:13:12;16.00;;;11.10;;
7128;SDS011;3606;52.930;8.644;2024-01-30T07:15:41;15.03;;;11.30;;
7128;SDS011;3606;52.930;8.644;2024-01-30T07:18:07;20.07;;;10.80;;
7128;SDS011;3606;52.930;8.644;2024-01-30T07:20:32;16.17;;;10.90;;
7128;SDS011;3606;52.930;8.644;2024-01-30T07:22:58;15.17;;;11.27;;
7128;SDS011;3606;52.930;8.644;2024-01-30T07:25:24;15.70;;;11.13;;
7128;SDS011;3606;52.930;8.644;2024-01-30T07:27:52;15.43;;;10.53;;
7128;SDS011;3606;52.930;8.644;2024-01-30T07:30:18;15.03;;;10.87;;
7128;SDS011;3606;52.930;8.644;2024-01-30T07:32:44;18.43;;;11.47;;
7128;SDS011;3606;52.930;8.644;2024-01-30T07:35:11;17.27;;;10.27;;
7128;SDS011;3606;52.930;8.644;2024-01-30T07:37:36;15.20;;;11.07;;
7128;SDS011;3606;52.930;8.644;2024-01-30T07:40:02;16.87;;;11.13;;
7128;SDS011;3606;52.930;8.644;2024-01-30T07:42:28;14.90;;;10.37;;
7128;SDS011;3606;52.930;8.644;2024-01-30T07:44:54;15.40;;;10.33;;
7128;SDS011;3606;52.930;8.644;2024-01-30T07:47:20;16.73;;;10.07;;
7128;SDS011;3606;52.930;8.644;2024-01-30T07:49:46;16.47;;;11.23;;
7128;SDS011;3606;52.930;8.644;2024-01-30T07:52:11;15.90;;;10.43;;
7128;SDS011;3606;52.930;8.644;2024-01-30T07:54:37;14.60;;;10.77;;
7128;SDS011;3606;52.930;8.644;2024-01-30T07:57:06;14.77;;;10.23;;
7128;SDS011;3606;52.930;8.644;2024-01-30T07:59:32;15.67;;;10.77;;
7128;SDS011;3606;52.930;8.644;2024-01-30T08:01:57;15.20;;;10.77;;
7128;SDS011;3606;52.930;8.644;2024-01-30T08:04:23;13.67;;;9.70;;
7128;SDS011;3606;52.930;8.644;2024-01-30T08:06:48;16.07;;;10.30;;
7128;SDS011;3606;52.930;8.644;2024-01-30T08:09:14;19.43;;;10.47;;
7128;SDS011;3606;52.930;8.644;2024-01-30T08:11:40;16.63;;;9.80;;
7128;SDS011;3606;52.930;8.644;2024-01-30T08:14:05;19.20;;;9.60;;
7128;SDS011;3606;52.930;8.644;2024-01-30T08:16:31;16.67;;;9.60;;
7128;SDS011;3606;52.930;8.644;2024-01-30T08:18:56;15.57;;;9.97;;
7128;SDS011;3606;52.930;8.644;2024-01-30T08:21:22;17.70;;;10.03;;
7128;SDS011;3606;52.930;8.644;2024-01-30T08:23:48;12.63;;;9.43;;
7128;SDS011;3606;52.930;8.644;2024-01-30T08:26:14;15.67;;;9.60;;
7128;SDS011;3606;52.930;8.644;2024-01-30T08:28:39;13.33;;;9.33;;
7128;SDS011;3606;52.930;8.644;2024-01-30T08:31:05;12.47;;;9.53;;
7128;SDS011;3606;52.930;8.644;2024-01-30T08:33:30;17.23;;;9.00;;
7128;SDS011;3606;52.930;8.644;2024-01-30T08:35:56;18.60;;;9.93;;
7128;SDS011;3606;52.930;8.644;2024-01-30T08:38:22;18.00;;;9.97;;
7128;SDS011;3606;52.930;8.644;2024-01-30T08:40:47;17.63;;;9.10;;
7128;SDS011;3606;52.930;8.644;2024-01-30T08:43:13;17.10;;;10.50;;
7128;SDS011;3606;52.930;8.644;2024-01-30T08:45:40;19.73;;;10.17;;
7128;SDS011;3606;52.930;8.644;2024-01-30T08:48:06;10.67;;;8.70;;
7128;SDS011;3606;52.930;8.644;2024-01-30T08:50:32;15.20;;;9.83;;
7128;SDS011;3606;52.930;8.644;2024-01-30T08:52:58;15.73;;;11.53;;
7128;SDS011;3606;52.930;8.644;2024-01-30T08:55:24;16.83;;;11.17;;
7128;SDS011;3606;52.930;8.644;2024-01-30T08:57:49;17.50;;;10.73;;
7128;SDS011;3606;52.930;8.644;2024-01-30T09:00:15;17.73;;;11.60;;
7128;SDS011;3606;52.930;8.644;2024-01-30T09:02:41;16.90;;;10.13;;
7128;SDS011;3606;52.930;8.644;2024-01-30T09:05:07;13.53;;;9.63;;
7128;SDS011;3606;52.930;8.644;2024-01-30T09:07:32;14.03;;;9.47;;
7128;SDS011;3606;52.930;8.644;2024-01-30T09:09:58;12.13;;;8.67;;
7128;SDS011;3606;52.930;8.644;2024-01-30T09:12:24;13.77;;;9.17;;
7128;SDS011;3606;52.930;8.644;2024-01-30T09:14:49;12.90;;;8.23;;
7128;SDS011;3606;52.930;8.644;2024-01-30T09:17:15;11.30;;;8.43;;
7128;SDS011;3606;52.930;8.644;2024-01-30T09:19:41;15.47;;;8.90;;
7128;SDS011;3606;52.930;8.644;2024-01-30T09:22:06;12.67;;;8.43;;
7128;SDS011;3606;52.930;8.644;2024-01-30T09:24:32;14.83;;;8.90;;
7128;SDS011;3606;52.930;8.644;2024-01-30T09:26:58;13.37;;;8.67;;
7128;SDS011;3606;52.930;8.644;2024-01-30T09:29:24;17.43;;;9.30;;
7128;SDS011;3606;52.930;8.644;2024-01-30T09:31:49;12.13;;;9.10;;
7128;SDS011;3606;52.930;8.644;2024-01-30T09:34:15;11.63;;;8.43;;
7128;SDS011;3606;52.930;8.644;2024-01-30T09:36:41;12.40;;;8.23;;
7128;SDS011;3606;52.930;8.644;2024-01-30T09:39:06;12.47;;;8.40;;
7128;SDS011;3606;52.930;8.644;2024-01-30T09:41:32;10.87;;;8.33;;
7128;SDS011;3606;52.930;8.644;2024-01-30T09:44:05;13.97;;;8.30;;
7128;SDS011;3606;52.930;8.644;2024-01-30T09:46:36;9.53;;;7.80;;
7128;SDS011;3606;52.930;8.644;2024-01-30T09:49:02;12.37;;;8.30;;
7128;SDS011;3606;52.930;8.644;2024-01-30T09:51:28;12.77;;;8.07;;
7128;SDS011;3606;52.930;8.644;2024-01-30T09:53:55;11.23;;;8.13;;
7128;SDS011;3606;52.930;8.644;2024-01-30T09:56:21;15.40;;;8.83;;
7128;SDS011;3606;52.930;8.644;2024-01-30T09:58:47;12.27;;;8.97;;
7128;SDS011;3606;52.930;8.644;2024-01-30T10:01:13;12.50;;;8.60;;
7128;SDS011;3606;52.930;8.644;2024-01-30T10:03:43;24.07;;;9.77;;
7128;SDS011;3606;52.930;8.644;2024-01-30T10:06:09;17.90;;;8.53;;
7128;SDS011;3606;52.930;8.644;2024-01-30T10:08:35;11.27;;;8.03;;
7128;SDS011;3606;52.930;8.644;2024-01-30T10:11:01;10.13;;;8.17;;
7128;SDS011;3606;52.930;8.644;2024-01-30T10:13:28;11.70;;;8.57;;
7128;SDS011;3606;52.930;8.644;2024-01-30T10:15:54;11.73;;;8.47;;
7128;SDS011;3606;52.930;8.644;2024-01-30T10:18:20;10.90;;;7.33;;
7128;SDS011;3606;52.930;8.644;2024-01-30T10:20:48;14.00;;;8.73;;
7128;SDS011;3606;52.930;8.644;2024-01-30T10:23:14;14.20;;;9.37;;
7128;SDS011;3606;52.930;8.644;2024-01-30T10:25:40;26.00;;;10.80;;
7128;SDS011;3606;52.930;8.644;2024-01-30T10:28:06;14.07;;;8.63;;
7128;SDS011;3606;52.930;8.644;2024-01-30T10:30:32;13.13;;;8.43;;
7128;SDS011;3606;52.930;8.644;2024-01-30T10:32:57;14.53;;;8.17;;
7128;SDS011;3606;52.930;8.644;2024-01-30T10:35:23;11.63;;;8.27;;
7128;SDS011;3606;52.930;8.644;2024-01-30T10:37:49;15.57;;;8.90;;
7128;SDS011;3606;52.930;8.644;2024-01-30T10:40:14;11.10;;;7.93;;
7128;SDS011;3606;52.930;8.644;2024-01-30T10:42:42;9.33;;;7.13;;
7128;SDS011;3606;52.930;8.644;2024-01-30T10:45:09;10.83;;;7.47;;
7128;SDS011;3606;52.930;8.644;2024-01-30T10:47:41;10.87;;;6.70;;
7128;SDS011;3606;52.930;8.644;2024-01-30T10:50:13;8.07;;;6.53;;
7128;SDS011;3606;52.930;8.644;2024-01-30T10:52:39;9.20;;;6.40;;
7128;SDS011;3606;52.930;8.644;2024-01-30T10:55:09;8.63;;;6.33;;
7128;SDS011;3606;52.930;8.644;2024-01-30T10:57:35;7.80;;;5.80;;
7128;SDS011;3606;52.930;8.644;2024-01-30T11:00:02;10.57;;;6.37;;
7128;SDS011;3606;52.930;8.644;2024-01-30T11:02:41;9.73;;;6.20;;
7128;SDS011;3606;52.930;8.644;2024-01-30T11:05:08;9.17;;;6.27;;
7128;SDS011;3606;52.930;8.644;2024-01-30T11:07:34;8.67;;;6.73;;
7128;SDS011;3606;52.930;8.644;2024-01-30T11:10:01;10.87;;;6.73;;
7128;SDS011;3606;52.930;8.644;2024-01-30T11:12:29;10.97;;;7.00;;
7128;SDS011;3606;52.930;8.644;2024-01-30T11:15:04;9.90;;;7.37;;
7128;SDS011;3606;52.930;8.644;2024-01-30T11:20:29;12.07;;;7.13;;
7128;SDS011;3606;52.930;8.644;2024-01-30T11:22:56;9.57;;;6.13;;
7128;SDS011;3606;52.930;8.644;2024-01-30T11:25:22;8.57;;;5.83;;
7128;SDS011;3606;52.930;8.644;2024-01-30T11:27:49;9.20;;;6.17;;
7128;SDS011;3606;52.930;8.644;2024-01-30T11:30:30;8.20;;;6.13;;
7128;SDS011;3606;52.930;8.644;2024-01-30T11:33:06;10.33;;;6.60;;
7128;SDS011;3606;52.930;8.644;2024-01-30T11:35:36;9.00;;;6.23;;
7128;SDS011;3606;52.930;8.644;2024-01-30T11:38:06;10.10;;;6.80;;
7128;SDS011;3606;52.930;8.644;2024-01-30T11:40:33;9.23;;;6.40;;
7128;SDS011;3606;52.930;8.644;2024-01-30T11:43:00;9.60;;;6.70;;
7128;SDS011;3606;52.930;8.644;2024-01-30T11:45:29;10.93;;;6.80;;
7128;SDS011;3606;52.930;8.644;2024-01-30T11:47:56;11.60;;;7.00;;
7128;SDS011;3606;52.930;8.644;2024-01-30T11:50:22;9.93;;;7.03;;
7128;SDS011;3606;52.930;8.644;2024-01-30T11:52:49;9.83;;;6.77;;
7128;SDS011;3606;52.930;8.644;2024-01-30T11:55:15;9.83;;;7.00;;
7128;SDS011;3606;52.930;8.644;2024-01-30T11:57:41;10.57;;;6.67;;
7128;SDS011;3606;52.930;8.644;2024-01-30T12:00:18;9.17;;;6.80;;
7128;SDS011;3606;52.930;8.644;2024-01-30T12:02:49;9.07;;;6.73;;
7128;SDS011;3606;52.930;8.644;2024-01-30T12:05:21;8.70;;;6.80;;
7128;SDS011;3606;52.930;8.644;2024-01-30T12:07:47;10.60;;;7.50;;
7128;SDS011;3606;52.930;8.644;2024-01-30T12:10:13;15.87;;;8.33;;
7128;SDS011;3606;52.930;8.644;2024-01-30T12:12:39;9.50;;;6.93;;
7128;SDS011;3606;52.930;8.644;2024-01-30T12:15:07;10.57;;;7.07;;
7128;SDS011;3606;52.930;8.644;2024-01-30T12:17:34;13.60;;;7.57;;
7128;SDS011;3606;52.930;8.644;2024-01-30T12:20:09;13.63;;;7.73;;
7128;SDS011;3606;52.930;8.644;2024-01-30T12:22:36;8.33;;;6.83;;
7128;SDS011;3606;52.930;8.644;2024-01-30T12:27:36;16.43;;;7.40;;
7128;SDS011;3606;52.930;8.644;2024-01-30T12:30:06;11.23;;;7.90;;
7128;SDS011;3606;52.930;8.644;2024-01-30T12:32:51;10.07;;;6.60;;
7128;SDS011;3606;52.930;8.644;2024-01-30T12:35:17;13.10;;;7.60;;
7128;SDS011;3606;52.930;8.644;2024-01-30T12:37:44;14.93;;;7.13;;
7128;SDS011;3606;52.930;8.644;2024-01-30T12:40:11;9.37;;;6.93;;
7128;SDS011;3606;52.930;8.644;2024-01-30T12:42:39;12.73;;;7.80;;
7128;SDS011;3606;52.930;8.644;2024-01-30T12:45:08;14.67;;;6.83;;
7128;SDS011;3606;52.930;8.644;2024-01-30T12:47:34;12.10;;;7.27;;
7128;SDS011;3606;52.930;8.644;2024-01-30T12:50:00;11.23;;;7.07;;
7128;SDS011;3606;52.930;8.644;2024-01-30T12:52:26;12.47;;;8.17;;
7128;SDS011;3606;52.930;8.644;2024-01-30T12:54:52;12.57;;;6.77;;
7128;SDS011;3606;52.930;8.644;2024-01-30T12:57:18;9.77;;;6.90;;
7128;SDS011;3606;52.930;8.644;2024-01-30T12:59:44;14.07;;;7.33;;
7128;SDS011;3606;52.930;8.644;2024-01-30T13:02:11;10.10;;;7.53;;
7128;SDS011;3606;52.930;8.644;2024-01-30T13:04:37;7.20;;;6.40;;
7128;SDS011;3606;52.930;8.644;2024-01-30T13:07:03;12.73;;;7.30;;
7128;SDS011;3606;52.930;8.644;2024-01-30T13:09:29;10.10;;;6.97;;
7128;SDS011;3606;52.930;8.644;2024-01-30T13:11:56;15.10;;;6.90;;
7128;SDS011;3606;52.930;8.644;2024-01-30T13:14:22;11.17;;;7.77;;
7128;SDS011;3606;52.930;8.644;2024-01-30T13:16:48;10.30;;;6.70;;
7128;SDS011;3606;52.930;8.644;2024-01-30T13:19:14;10.43;;;7.27;;
7128;SDS011;3606;52.930;8.644;2024-01-30T13:21:39;9.67;;;6.33;;
7128;SDS011;3606;52.930;8.644;2024-01-30T13:24:05;11.77;;;6.80;;
7128;SDS011;3606;52.930;8.644;2024-01-30T13:26:31;11.63;;;7.60;;
7128;SDS011;3606;52.930;8.644;2024-01-30T13:28:57;10.57;;;7.00;;
7128;SDS011;3606;52.930;8.644;2024-01-30T13:31:23;11.03;;;7.67;;
7128;SDS011;3606;52.930;8.644;2024-01-30T13:33:49;11.53;;;7.80;;
7128;SDS011;3606;52.930;8.644;2024-01-30T13:36:14;13.77;;;7.67;;
7128;SDS011;3606;52.930;8.644;2024-01-30T13:38:40;13.27;;;7.40;;
7128;SDS011;3606;52.930;8.644;2024-01-30T13:41:06;14.23;;;8.10;;
7128;SDS011;3606;52.930;8.644;2024-01-30T13:43:32;12.23;;;7.53;;
7128;SDS011;3606;52.930;8.644;2024-01-30T13:45:57;18.33;;;7.33;;
7128;SDS011;3606;52.930;8.644;2024-01-30T13:48:23;9.90;;;6.90;;
7128;SDS011;3606;52.930;8.644;2024-01-30T13:50:49;14.80;;;7.50;;
7128;SDS011;3606;52.930;8.644;2024-01-30T13:53:15;13.40;;;7.37;;
7128;SDS011;3606;52.930;8.644;2024-01-30T13:55:40;11.43;;;7.00;;
7128;SDS011;3606;52.930;8.644;2024-01-30T13:58:06;8.77;;;6.83;;
7128;SDS011;3606;52.930;8.644;2024-01-30T14:00:32;13.50;;;7.57;;
7128;SDS011;3606;52.930;8.644;2024-01-30T14:02:59;10.37;;;6.73;;
7128;SDS011;3606;52.930;8.644;2024-01-30T14:05:25;9.17;;;6.20;;
7128;SDS011;3606;52.930;8.644;2024-01-30T14:07:53;8.70;;;6.70;;
7128;SDS011;3606;52.930;8.644;2024-01-30T14:10:19;13.70;;;6.80;;
7128;SDS011;3606;52.930;8.644;2024-01-30T14:12:45;9.10;;;6.73;;
7128;SDS011;3606;52.930;8.644;2024-01-30T14:15:13;10.60;;;6.80;;
7128;SDS011;3606;52.930;8.644;2024-01-30T14:17:40;12.07;;;7.10;;
7128;SDS011;3606;52.930;8.644;2024-01-30T14:20:06;12.47;;;7.40;;
7128;SDS011;3606;52.930;8.644;2024-01-30T14:22:35;10.10;;;7.17;;
7128;SDS011;3606;52.930;8.644;2024-01-30T14:25:01;14.37;;;6.97;;
7128;SDS011;3606;52.930;8.644;2024-01-30T14:27:28;14.07;;;6.83;;
7128;SDS011;3606;52.930;8.644;2024-01-30T14:29:55;11.53;;;6.60;;
7128;SDS011;3606;52.930;8.644;2024-01-30T14:32:21;7.63;;;6.10;;
7128;SDS011;3606;52.930;8.644;2024-01-30T14:34:48;11.27;;;6.20;;
7128;SDS011;3606;52.930;8.644;2024-01-30T14:37:14;7.90;;;6.60;;
7128;SDS011;3606;52.930;8.644;2024-01-30T14:39:39;13.30;;;6.50;;
7128;SDS011;3606;52.930;8.644;2024-01-30T14:42:06;13.40;;;6.50;;
7128;SDS011;3606;52.930;8.644;2024-01-30T14:44:32;10.30;;;6.50;;
7128;SDS011;3606;52.930;8.644;2024-01-30T14:46:58;8.03;;;5.93;;
7128;SDS011;3606;52.930;8.644;2024-01-30T14:49:24;14.80;;;6.93;;
7128;SDS011;3606;52.930;8.644;2024-01-30T14:51:50;9.17;;;6.47;;
7128;SDS011;3606;52.930;8.644;2024-01-30T14:54:16;10.90;;;6.10;;
7128;SDS011;3606;52.930;8.644;2024-01-30T14:56:41;7.70;;;6.17;;